Longvann — PBYB — position and weather

sailwx.info

Track history (hours):
 
Tides and Currents Weather Stations Pressure Air Temp Water Temp Dewpoint Dewpoint Depression Visibility Wind Speed Wind Dir Waves Ship Positions

Longvann

Last reported at 2018-Feb-23 09:45 UTC. Time now 2018-Feb-23 16:44 UTC.
Position N 59°34' E 022°58'.

Length 114 m; draft 6.2 m.

Type: Cargo ship. MMSI: 246670000.

Date/timePositionNaut miles runAvg speedWind from/ knotsBaromVisibWave heightAir tempDewpointWater temp
2018-Feb-23 09:45N 59°34' E 022°58'310.3
2018-Feb-23 09:29N 59°34' E 023°03'511.0
2018-Feb-23 09:00N 59°36' E 023°13'510.4
2018-Feb-23 08:30N 59°37' E 023°23'510.4
2018-Feb-23 08:00N 59°39' E 023°33'510.6
2018-Feb-23 07:30N 59°41' E 023°43'510.8
2018-Feb-23 07:00N 59°42' E 023°53'611.0
2018-Feb-23 06:30N 59°44' E 024°04'610.8
2018-Feb-23 05:54N 59°45' E 024°16'410.5
2018-Feb-23 05:30N 59°46' E 024°24'510.1
2018-Feb-23 05:00N 59°48' E 024°34'5 9.9
2018-Feb-23 04:30N 59°49' E 024°43'510.4
2018-Feb-23 04:01N 59°50' E 024°54'510.4
2018-Feb-23 03:29N 59°51' E 025°04'5 9.9
2018-Feb-23 03:00N 59°52' E 025°14'510.4
2018-Feb-23 02:30N 59°53' E 025°24'510.4
2018-Feb-23 02:00N 59°54' E 025°34'5 9.8
2018-Feb-23 01:29N 59°53' E 025°44'14 9.9
2018-Feb-23 00:02N 59°56' E 026°12'0 6.4
2018-Feb-23 00:00N 59°56' E 026°12'5 9.4
2018-Feb-22 23:30N 59°57' E 026°21'5 9.6
2018-Feb-22 23:00N 59°59' E 026°31'510.3
2018-Feb-22 22:31N 59°60' E 026°41'510.6
2018-Feb-22 22:00N 59°59' E 026°51'510.0
2018-Feb-22 21:30N 59°58' E 027°01'5 9.5
2018-Feb-22 21:00N 59°60' E 027°10'4 8.9
2018-Feb-22 20:30N 60°02' E 027°17'5 9.7
2018-Feb-22 20:00N 60°05' E 027°26'510.0
2018-Feb-22 19:30N 60°07' E 027°34'5 9.4
2018-Feb-22 19:00N 60°09' E 027°43'5 9.4
2018-Feb-22 18:30N 60°13' E 027°49'510.4
2018-Feb-22 18:00N 60°17' E 027°55'510.6
2018-Feb-22 17:30N 60°21' E 028°01'510.4
2018-Feb-22 17:00N 60°25' E 028°08'5 9.8
2018-Feb-22 16:30N 60°27' E 028°17'2 0.0
2018-Feb-21 03:56N 60°28' E 028°20'4 8.6
2018-Feb-21 03:30N 60°26' E 028°14'4 8.7
2018-Feb-21 03:00N 60°24' E 028°06'5 9.2
2018-Feb-21 02:30N 60°21' E 028°01'510.4
2018-Feb-21 02:00N 60°16' E 027°54'510.2
2018-Feb-21 01:30N 60°12' E 027°49'611.4
2018-Feb-21 01:00N 60°10' E 028°00'511.0
2018-Feb-21 00:30N 60°09' E 028°11'510.7
2018-Feb-21 00:00N 60°06' E 028°21'510.9
2018-Feb-20 23:30N 60°04' E 028°30'5 9.2
2018-Feb-20 23:00N 60°00' E 028°36'4 8.7
2018-Feb-20 22:30N 59°56' E 028°35'2 3.2
2018-Feb-20 21:57N 59°55' E 028°33'2 5.2
2018-Feb-20 21:30N 59°53' E 028°30'4 7.8
2018-Feb-20 21:00N 59°50' E 028°26'4 8.5
2018-Feb-20 20:30N 59°45' E 028°24'4 8.1
2018-Feb-20 20:01N 59°41' E 028°25'1 1.8
2018-Feb-20 19:30N 59°41' E 028°25'0 0.0
2018-Feb-20 18:58N 59°41' E 028°25'0 0.0
2018-Feb-20 18:30N 59°41' E 028°25'0 0.0
2018-Feb-20 18:00N 59°41' E 028°25'0 0.0
2018-Feb-20 17:30N 59°41' E 028°25'0 0.0
2018-Feb-20 17:00N 59°41' E 028°25'0 0.0
2018-Feb-20 16:30N 59°41' E 028°25'0 0.0
2018-Feb-20 15:48N 59°41' E 028°25'0 0.0
2018-Feb-20 15:24N 59°41' E 028°25'0 0.0
2018-Feb-20 14:51N 59°41' E 028°25'0 0.0
2018-Feb-20 14:24N 59°41' E 028°25'0 0.0
2018-Feb-20 13:54N 59°41' E 028°25'0 0.0
2018-Feb-20 13:24N 59°41' E 028°25'0 0.0
2018-Feb-20 12:54N 59°41' E 028°25'0 0.0
2018-Feb-20 12:24N 59°41' E 028°25'0 0.0
2018-Feb-20 11:57N 59°41' E 028°25'0 0.0
2018-Feb-20 11:27N 59°41' E 028°25'0 0.0
2018-Feb-20 10:57N 59°41' E 028°25'0 0.0
2018-Feb-20 10:27N 59°41' E 028°25'0 0.0
2018-Feb-20 09:58N 59°41' E 028°25'0 0.0
2018-Feb-20 09:30N 59°41' E 028°25'0 0.0
2018-Feb-20 09:00N 59°41' E 028°25'0 0.0
2018-Feb-20 08:30N 59°41' E 028°25'0 0.0
2018-Feb-20 08:00N 59°41' E 028°25'0 0.0
2018-Feb-20 07:30N 59°41' E 028°25'0 0.0
2018-Feb-20 07:00N 59°41' E 028°25'0 0.0
2018-Feb-20 06:30N 59°41' E 028°25'0 0.0
2018-Feb-20 06:00N 59°41' E 028°25'0 0.0
2018-Feb-20 05:30N 59°41' E 028°25'0 0.0
2018-Feb-20 05:00N 59°41' E 028°25'0 0.0
2018-Feb-20 04:30N 59°41' E 028°25'0 0.0
2018-Feb-20 04:00N 59°41' E 028°25'0 0.0
2018-Feb-20 03:30N 59°41' E 028°25'0 0.0
2018-Feb-20 03:00N 59°41' E 028°25'0 0.0
2018-Feb-20 02:30N 59°41' E 028°25'0 0.0
2018-Feb-20 01:51N 59°41' E 028°25'0 0.0
2018-Feb-20 01:21N 59°41' E 028°25'0 0.0
2018-Feb-20 00:54N 59°41' E 028°25'0 0.0
2018-Feb-20 00:24N 59°41' E 028°25'0 0.0
2018-Feb-19 23:51N 59°41' E 028°25'0 0.0
2018-Feb-19 23:24N 59°41' E 028°25'0 0.0
2018-Feb-19 22:54N 59°41' E 028°25'0 0.0
2018-Feb-19 22:31N 59°41' E 028°25'0 0.0
2018-Feb-19 22:01N 59°41' E 028°25'0 0.0
2018-Feb-19 21:28N 59°41' E 028°25'0 0.0
2018-Feb-19 21:01N 59°41' E 028°25'0 0.0
2018-Feb-19 20:30N 59°41' E 028°25'2 3.5
2018-Feb-19 20:00N 59°42' E 028°24'4 8.4
2018-Feb-19 19:30N 59°46' E 028°24'5 9.5
2018-Feb-19 19:01N 59°51' E 028°26'5 9.3
2018-Feb-19 18:31N 59°55' E 028°32'3 5.5
2018-Feb-19 18:00N 59°56' E 028°37'0 0.1
2018-Feb-19 17:28N 59°56' E 028°37'0 0.0
2018-Feb-19 16:59N 59°56' E 028°37'0 0.0
2018-Feb-19 16:29N 59°56' E 028°37'0 0.0
2018-Feb-19 15:59N 59°56' E 028°37'0 0.0
2018-Feb-19 15:29N 59°56' E 028°37'0 0.0
2018-Feb-19 14:59N 59°56' E 028°37'0 0.0
2018-Feb-19 14:29N 59°56' E 028°37'0 0.0
2018-Feb-19 13:59N 59°56' E 028°37'0 0.0
2018-Feb-19 13:29N 59°56' E 028°37'0 0.0
2018-Feb-19 12:59N 59°56' E 028°37'0 0.0
2018-Feb-19 12:29N 59°56' E 028°37'0 0.0
2018-Feb-19 11:59N 59°56' E 028°37'0 0.0
2018-Feb-19 11:20N 59°56' E 028°37'0 0.0
2018-Feb-19 10:59N 59°56' E 028°37'0 0.0
2018-Feb-19 10:29N 59°56' E 028°37'0 0.0
2018-Feb-19 09:59N 59°56' E 028°37'0 0.0
2018-Feb-19 09:20N 59°56' E 028°37'0 0.0
2018-Feb-19 08:50N 59°56' E 028°37'0 0.0
2018-Feb-19 08:29N 59°56' E 028°37'0 0.0
2018-Feb-19 08:00N 59°56' E 028°37'0 0.0
2018-Feb-19 07:30N 59°56' E 028°37'0 0.0
2018-Feb-19 07:00N 59°56' E 028°37'0 0.0
2018-Feb-19 06:30N 59°56' E 028°37'0 0.0
2018-Feb-19 06:00N 59°56' E 028°37'0 0.0
2018-Feb-19 05:30N 59°56' E 028°37'0 0.0
2018-Feb-19 05:00N 59°56' E 028°37'0 0.0
2018-Feb-19 04:29N 59°56' E 028°37'0 0.0
2018-Feb-19 04:00N 59°56' E 028°37'0 0.0
2018-Feb-19 03:30N 59°56' E 028°37'0 0.0
2018-Feb-19 03:00N 59°56' E 028°37'0 0.0
2018-Feb-19 02:30N 59°56' E 028°37'0 0.1
2018-Feb-19 02:00N 59°56' E 028°37'0 0.1
2018-Feb-19 01:30N 59°56' E 028°37'0 0.1
2018-Feb-19 01:00N 59°56' E 028°37'1 1.3
2018-Feb-19 00:30N 59°56' E 028°36'5 9.7
2018-Feb-19 00:00N 60°01' E 028°35'510.9
2018-Feb-18 23:30N 60°03' E 028°25'510.9
2018-Feb-18 23:00N 60°07' E 028°16'510.0
2018-Feb-18 22:30N 60°07' E 028°06'0 0.1
2018-Feb-18 22:00N 60°07' E 028°06'0 0.0
2018-Feb-18 21:30N 60°07' E 028°06'0 0.0
2018-Feb-18 21:00N 60°07' E 028°06'0 0.0
2018-Feb-18 20:30N 60°07' E 028°06'1 1.9
2018-Feb-18 20:00N 60°08' E 028°05'0 0.2
2018-Feb-18 19:30N 60°08' E 028°05'3 6.1
2018-Feb-18 19:00N 60°09' E 027°59'510.5
2018-Feb-18 18:30N 60°10' E 027°49'5 9.4
2018-Feb-18 18:01N 60°08' E 027°40'4 8.9
2018-Feb-18 17:30N 60°06' E 027°32'5 9.9
2018-Feb-18 17:00N 60°04' E 027°23'5 9.4
2018-Feb-18 16:30N 60°01' E 027°15'611.1
2018-Feb-18 16:00N 59°58' E 027°06'510.2
2018-Feb-18 15:30N 59°58' E 026°56'611.8
2018-Feb-18 15:00N 59°59' E 026°44'611.4
2018-Feb-18 14:30N 59°58' E 026°33'611.6
2018-Feb-18 14:00N 59°57' E 026°22'1811.6
2018-Feb-18 12:27N 59°52' E 025°47'511.7
2018-Feb-18 11:59N 59°50' E 025°36'511.5
2018-Feb-18 11:30N 59°49' E 025°26'711.7
2018-Feb-18 10:54N 59°48' E 025°12'511.6
2018-Feb-18 10:30N 59°47' E 025°03'611.8
2018-Feb-18 10:00N 59°46' E 024°51'611.3
2018-Feb-18 09:30N 59°45' E 024°40'611.5
2018-Feb-18 09:00N 59°43' E 024°29'611.6
2018-Feb-18 08:30N 59°42' E 024°18'611.5
2018-Feb-18 08:00N 59°40' E 024°07'611.6
2018-Feb-18 07:30N 59°38' E 023°56'611.8
2018-Feb-18 07:00N 59°37' E 023°45'611.9
2018-Feb-18 06:30N 59°35' E 023°34'612.1
2018-Feb-18 06:00N 59°33' E 023°23'611.6
2018-Feb-18 05:30N 59°31' E 023°12'611.9
2018-Feb-18 05:00N 59°29' E 023°01'28311.2
2018-Feb-17 03:38N 56°06' E 016°51'211.4
2018-Feb-17 03:30N 56°05' E 016°49'611.2
2018-Feb-17 02:59N 56°02' E 016°41'611.4
2018-Feb-17 02:30N 55°59' E 016°32'611.6
2018-Feb-17 02:00N 55°56' E 016°23'611.5
2018-Feb-17 01:30N 55°54' E 016°14'611.4
2018-Feb-17 01:00N 55°51' E 016°05'611.4
2018-Feb-17 00:30N 55°48' E 015°56'611.4
2018-Feb-17 00:00N 55°45' E 015°48'611.6
2018-Feb-16 23:30N 55°42' E 015°39'611.8
2018-Feb-16 23:00N 55°39' E 015°30'611.7
2018-Feb-16 22:30N 55°36' E 015°21'611.6
2018-Feb-16 22:00N 55°33' E 015°12'611.6
2018-Feb-16 21:30N 55°31' E 015°03'611.5
2018-Feb-16 21:00N 55°28' E 014°54'611.4
2018-Feb-16 20:29N 55°25' E 014°44'611.3
2018-Feb-16 19:59N 55°22' E 014°36'511.4
2018-Feb-16 19:30N 55°18' E 014°30'510.8
2018-Feb-16 19:00N 55°14' E 014°24'510.3
2018-Feb-16 18:29N 55°11' E 014°16'811.5
2018-Feb-16 17:50N 55°11' E 014°03'3111.7
2018-Feb-16 15:09N 55°13' E 013°08'211.4
2018-Feb-16 14:59N 55°13' E 013°04'611.8
2018-Feb-16 14:29N 55°14' E 012°54'611.9
2018-Feb-16 14:00N 55°16' E 012°45'510.6
2018-Feb-16 13:30N 55°20' E 012°39'611.2
2018-Feb-16 13:00N 55°25' E 012°38'611.8
2018-Feb-16 12:30N 55°30' E 012°32'510.5
2018-Feb-16 12:00N 55°35' E 012°29'1 2.1
2018-Feb-16 11:30N 55°36' E 012°29'0 0.0
2018-Feb-16 11:00N 55°36' E 012°29'0 0.0
2018-Feb-16 10:29N 55°36' E 012°29'0 0.0
2018-Feb-16 09:59N 55°36' E 012°29'0 0.0
2018-Feb-16 09:29N 55°36' E 012°29'0 0.0
2018-Feb-16 08:59N 55°36' E 012°29'0 0.0
2018-Feb-16 08:28N 55°36' E 012°29'0 0.0
2018-Feb-16 07:59N 55°36' E 012°29'0 0.0
2018-Feb-16 07:28N 55°36' E 012°29'0 0.0
2018-Feb-16 06:58N 55°36' E 012°29'0 0.0
2018-Feb-16 06:29N 55°36' E 012°29'0 0.0
2018-Feb-16 05:59N 55°36' E 012°29'0 0.0
2018-Feb-16 05:28N 55°36' E 012°29'0 0.0
2018-Feb-16 04:59N 55°36' E 012°29'0 0.0
2018-Feb-16 04:29N 55°36' E 012°29'0 0.0
2018-Feb-16 03:59N 55°36' E 012°29'0 0.0
2018-Feb-16 03:29N 55°36' E 012°29'0 0.0
2018-Feb-16 02:58N 55°36' E 012°29'0 0.0
2018-Feb-16 02:28N 55°36' E 012°29'0 0.0
2018-Feb-16 01:59N 55°36' E 012°29'0 0.0
2018-Feb-16 01:29N 55°36' E 012°29'0 0.0
2018-Feb-16 00:59N 55°36' E 012°29'0 0.0
2018-Feb-16 00:29N 55°36' E 012°29'0 0.0
2018-Feb-15 23:58N 55°36' E 012°29'0 0.0
2018-Feb-15 23:28N 55°36' E 012°29'0 0.0
2018-Feb-15 22:58N 55°36' E 012°29'0 0.0
2018-Feb-15 22:29N 55°36' E 012°29'0 0.0
2018-Feb-15 21:59N 55°36' E 012°29'0 0.0
2018-Feb-15 21:29N 55°36' E 012°29'0 0.0
2018-Feb-15 20:59N 55°36' E 012°29'0 0.0
2018-Feb-15 20:29N 55°36' E 012°29'0 0.0
2018-Feb-15 19:59N 55°36' E 012°29'0 0.0
2018-Feb-15 19:29N 55°36' E 012°29'0 0.0
2018-Feb-15 18:59N 55°36' E 012°29'0 0.0
2018-Feb-15 18:29N 55°36' E 012°29'0 0.0
2018-Feb-15 17:59N 55°36' E 012°29'0 0.0
2018-Feb-15 17:29N 55°36' E 012°29'0 0.0
2018-Feb-15 16:58N 55°36' E 012°29'0 0.0
2018-Feb-15 16:28N 55°36' E 012°29'0 0.0
2018-Feb-15 15:58N 55°36' E 012°29'0 0.0
2018-Feb-15 15:29N 55°36' E 012°29'0 0.0
2018-Feb-15 14:59N 55°36' E 012°29'0 0.0
2018-Feb-15 14:29N 55°36' E 012°29'0 0.0
2018-Feb-15 13:59N 55°36' E 012°29'0 0.0
2018-Feb-15 13:28N 55°36' E 012°29'0 0.0
2018-Feb-15 12:58N 55°36' E 012°29'0 0.0
2018-Feb-15 12:29N 55°36' E 012°29'0 0.0
2018-Feb-15 11:58N 55°36' E 012°29'0 0.0
2018-Feb-15 11:29N 55°36' E 012°29'0 0.0
2018-Feb-15 10:59N 55°36' E 012°29'0 0.0
2018-Feb-15 10:29N 55°36' E 012°29'0 0.0
2018-Feb-15 09:58N 55°36' E 012°29'0 0.0
2018-Feb-15 09:29N 55°36' E 012°29'0 0.0
2018-Feb-15 08:58N 55°36' E 012°29'0 0.0
2018-Feb-15 08:28N 55°36' E 012°29'0 0.0
2018-Feb-15 07:59N 55°36' E 012°29'0 0.0
2018-Feb-15 07:28N 55°36' E 012°29'0 0.0
2018-Feb-15 06:59N 55°36' E 012°29'0 0.0
2018-Feb-15 06:29N 55°36' E 012°29'0 0.0
2018-Feb-15 05:58N 55°36' E 012°29'0 0.0
2018-Feb-15 05:29N 55°36' E 012°29'0 0.0
2018-Feb-15 04:58N 55°36' E 012°29'0 0.0
2018-Feb-15 04:29N 55°36' E 012°29'0 0.0
2018-Feb-15 03:59N 55°36' E 012°29'0 0.0
2018-Feb-15 03:29N 55°36' E 012°29'0 0.0
2018-Feb-15 02:59N 55°36' E 012°29'0 0.0
2018-Feb-15 02:29N 55°36' E 012°29'0 0.0
2018-Feb-15 01:59N 55°36' E 012°29'0 0.0
2018-Feb-15 01:29N 55°36' E 012°29'0 0.0
2018-Feb-15 00:58N 55°36' E 012°29'0 0.0
2018-Feb-15 00:28N 55°36' E 012°29'0 0.0
2018-Feb-14 23:59N 55°36' E 012°29'0 0.0
2018-Feb-14 23:28N 55°36' E 012°29'0 0.0
2018-Feb-14 22:58N 55°36' E 012°29'0 0.0
2018-Feb-14 22:28N 55°36' E 012°29'0 0.0
2018-Feb-14 21:59N 55°36' E 012°29'0 0.1
2018-Feb-14 21:30N 55°36' E 012°29'0 0.2
2018-Feb-14 21:00N 55°36' E 012°29'4 8.1
2018-Feb-14 20:30N 55°32' E 012°30'4 8.7
2018-Feb-14 20:00N 55°30' E 012°37'2 4.1
2018-Feb-14 19:30N 55°28' E 012°35'0 0.1
2018-Feb-14 18:53N 55°28' E 012°35'0 0.0
2018-Feb-14 18:29N 55°28' E 012°35'0 0.0
2018-Feb-14 17:59N 55°28' E 012°35'0 0.0
2018-Feb-14 17:29N 55°28' E 012°35'0 0.0
2018-Feb-14 16:59N 55°28' E 012°35'0 0.0
2018-Feb-14 16:29N 55°28' E 012°35'0 0.0
2018-Feb-14 15:56N 55°28' E 012°35'0 0.0
2018-Feb-14 15:29N 55°28' E 012°35'0 0.0
2018-Feb-14 14:59N 55°28' E 012°35'0 0.0
2018-Feb-14 14:29N 55°28' E 012°35'0 0.0
2018-Feb-14 13:59N 55°28' E 012°35'0 0.0
2018-Feb-14 13:29N 55°28' E 012°35'0 0.0
2018-Feb-14 12:53N 55°28' E 012°35'0 0.0
2018-Feb-14 12:26N 55°28' E 012°35'0 0.0
2018-Feb-14 11:56N 55°28' E 012°35'0 0.1
2018-Feb-14 11:26N 55°28' E 012°35'0 0.0
2018-Feb-14 10:59N 55°28' E 012°35'0 0.1
2018-Feb-14 10:26N 55°28' E 012°35'0 0.0
2018-Feb-14 09:59N 55°28' E 012°35'0 0.0
2018-Feb-14 09:29N 55°28' E 012°35'0 0.0
2018-Feb-14 08:50N 55°28' E 012°35'0 0.0
2018-Feb-14 08:20N 55°28' E 012°35'0 0.0
2018-Feb-14 07:56N 55°28' E 012°35'0 0.0
2018-Feb-14 07:29N 55°28' E 012°35'0 0.0
2018-Feb-14 06:59N 55°28' E 012°35'0 0.0
2018-Feb-14 06:26N 55°28' E 012°35'0 0.0
2018-Feb-14 05:56N 55°28' E 012°35'0 0.0
2018-Feb-14 05:29N 55°28' E 012°35'0 0.0
2018-Feb-14 04:59N 55°28' E 012°35'0 0.0
2018-Feb-14 04:29N 55°28' E 012°35'0 0.0
2018-Feb-14 03:59N 55°28' E 012°35'0 0.0
2018-Feb-14 03:29N 55°28' E 012°35'0 0.0
2018-Feb-14 02:59N 55°28' E 012°35'0 0.0
2018-Feb-14 01:56N 55°28' E 012°35'0 0.0
2018-Feb-14 01:29N 55°28' E 012°35'0 0.0
2018-Feb-14 00:56N 55°28' E 012°35'0 0.0
2018-Feb-14 00:29N 55°28' E 012°35'0 0.0
2018-Feb-13 23:59N 55°28' E 012°35'0 0.0
2018-Feb-13 23:26N 55°28' E 012°35'0 0.0
2018-Feb-13 22:56N 55°28' E 012°35'0 0.0
2018-Feb-13 22:29N 55°28' E 012°35'0 0.0
2018-Feb-13 21:59N 55°28' E 012°35'0 0.0
2018-Feb-13 21:29N 55°28' E 012°35'0 0.1
2018-Feb-13 20:44N 55°28' E 012°35'0 0.0
2018-Feb-13 20:26N 55°28' E 012°35'0 0.0
2018-Feb-13 19:59N 55°28' E 012°35'0 0.0
2018-Feb-13 19:29N 55°28' E 012°35'0 0.0
2018-Feb-13 18:59N 55°28' E 012°35'0 0.0
2018-Feb-13 18:29N 55°28' E 012°35'0 0.0
2018-Feb-13 17:56N 55°28' E 012°35'0 0.0
2018-Feb-13 17:29N 55°28' E 012°35'0 0.0
2018-Feb-13 16:59N 55°28' E 012°35'0 0.0
2018-Feb-13 16:26N 55°28' E 012°35'0 0.0
2018-Feb-13 15:59N 55°28' E 012°35'0 0.0
2018-Feb-13 15:26N 55°28' E 012°35'0 0.1
2018-Feb-13 14:59N 55°28' E 012°35'0 0.0
2018-Feb-13 14:29N 55°28' E 012°35'0 0.0
2018-Feb-13 13:59N 55°28' E 012°35'0 0.0
2018-Feb-13 13:29N 55°28' E 012°35'0 0.0
2018-Feb-13 12:56N 55°28' E 012°35'0 0.1
2018-Feb-13 12:29N 55°28' E 012°35'0 0.0
2018-Feb-13 11:56N 55°28' E 012°35'0 0.0
2018-Feb-13 11:29N 55°28' E 012°35'0 0.0
2018-Feb-13 10:59N 55°28' E 012°35'0 0.0
2018-Feb-13 10:26N 55°28' E 012°35'0 0.1
2018-Feb-13 09:59N 55°28' E 012°35'  
Track history (hours):
 
Tides and Currents Weather Stations Pressure Air Temp Water Temp Dewpoint Dewpoint Depression Visibility Wind Speed Wind Dir Waves Ship Positions

Longvann

Last reported at 2018-Feb-23 09:45 UTC. Time now 2018-Feb-23 16:44 UTC.
Position N 59°34' E 022°58'.

Length 114 m; draft 6.2 m.

Type: Cargo ship. MMSI: 246670000.

Date/timePositionNaut miles runAvg speedWind from/ knotsBaromVisibWave heightAir tempDewpointWater temp
2018-Feb-23 09:45N 59°34' E 022°58'310.3
2018-Feb-23 09:29N 59°34' E 023°03'511.0
2018-Feb-23 09:00N 59°36' E 023°13'510.4
2018-Feb-23 08:30N 59°37' E 023°23'510.4
2018-Feb-23 08:00N 59°39' E 023°33'510.6
2018-Feb-23 07:30N 59°41' E 023°43'510.8
2018-Feb-23 07:00N 59°42' E 023°53'611.0
2018-Feb-23 06:30N 59°44' E 024°04'610.8
2018-Feb-23 05:54N 59°45' E 024°16'410.5
2018-Feb-23 05:30N 59°46' E 024°24'510.1
2018-Feb-23 05:00N 59°48' E 024°34'5 9.9
2018-Feb-23 04:30N 59°49' E 024°43'510.4
2018-Feb-23 04:01N 59°50' E 024°54'510.4
2018-Feb-23 03:29N 59°51' E 025°04'5 9.9
2018-Feb-23 03:00N 59°52' E 025°14'510.4
2018-Feb-23 02:30N 59°53' E 025°24'510.4
2018-Feb-23 02:00N 59°54' E 025°34'5 9.8
2018-Feb-23 01:29N 59°53' E 025°44'14 9.9
2018-Feb-23 00:02N 59°56' E 026°12'0 6.4
2018-Feb-23 00:00N 59°56' E 026°12'5 9.4
2018-Feb-22 23:30N 59°57' E 026°21'5 9.6
2018-Feb-22 23:00N 59°59' E 026°31'510.3
2018-Feb-22 22:31N 59°60' E 026°41'510.6
2018-Feb-22 22:00N 59°59' E 026°51'510.0
2018-Feb-22 21:30N 59°58' E 027°01'5 9.5
2018-Feb-22 21:00N 59°60' E 027°10'4 8.9
2018-Feb-22 20:30N 60°02' E 027°17'5 9.7
2018-Feb-22 20:00N 60°05' E 027°26'510.0
2018-Feb-22 19:30N 60°07' E 027°34'5 9.4
2018-Feb-22 19:00N 60°09' E 027°43'5 9.4
2018-Feb-22 18:30N 60°13' E 027°49'510.4
2018-Feb-22 18:00N 60°17' E 027°55'510.6
2018-Feb-22 17:30N 60°21' E 028°01'510.4
2018-Feb-22 17:00N 60°25' E 028°08'5 9.8
2018-Feb-22 16:30N 60°27' E 028°17'2 0.0
2018-Feb-21 03:56N 60°28' E 028°20'4 8.6
2018-Feb-21 03:30N 60°26' E 028°14'4 8.7
2018-Feb-21 03:00N 60°24' E 028°06'5 9.2
2018-Feb-21 02:30N 60°21' E 028°01'510.4
2018-Feb-21 02:00N 60°16' E 027°54'510.2
2018-Feb-21 01:30N 60°12' E 027°49'611.4
2018-Feb-21 01:00N 60°10' E 028°00'511.0
2018-Feb-21 00:30N 60°09' E 028°11'510.7
2018-Feb-21 00:00N 60°06' E 028°21'510.9
2018-Feb-20 23:30N 60°04' E 028°30'5 9.2
2018-Feb-20 23:00N 60°00' E 028°36'4 8.7
2018-Feb-20 22:30N 59°56' E 028°35'2 3.2
2018-Feb-20 21:57N 59°55' E 028°33'2 5.2
2018-Feb-20 21:30N 59°53' E 028°30'4 7.8
2018-Feb-20 21:00N 59°50' E 028°26'4 8.5
2018-Feb-20 20:30N 59°45' E 028°24'4 8.1
2018-Feb-20 20:01N 59°41' E 028°25'1 1.8
2018-Feb-20 19:30N 59°41' E 028°25'0 0.0
2018-Feb-20 18:58N 59°41' E 028°25'0 0.0
2018-Feb-20 18:30N 59°41' E 028°25'0 0.0
2018-Feb-20 18:00N 59°41' E 028°25'0 0.0
2018-Feb-20 17:30N 59°41' E 028°25'0 0.0
2018-Feb-20 17:00N 59°41' E 028°25'0 0.0
2018-Feb-20 16:30N 59°41' E 028°25'0 0.0
2018-Feb-20 15:48N 59°41' E 028°25'0 0.0
2018-Feb-20 15:24N 59°41' E 028°25'0 0.0
2018-Feb-20 14:51N 59°41' E 028°25'0 0.0
2018-Feb-20 14:24N 59°41' E 028°25'0 0.0
2018-Feb-20 13:54N 59°41' E 028°25'0 0.0
2018-Feb-20 13:24N 59°41' E 028°25'0 0.0
2018-Feb-20 12:54N 59°41' E 028°25'0 0.0
2018-Feb-20 12:24N 59°41' E 028°25'0 0.0
2018-Feb-20 11:57N 59°41' E 028°25'0 0.0
2018-Feb-20 11:27N 59°41' E 028°25'0 0.0
2018-Feb-20 10:57N 59°41' E 028°25'0 0.0
2018-Feb-20 10:27N 59°41' E 028°25'0 0.0
2018-Feb-20 09:58N 59°41' E 028°25'0 0.0
2018-Feb-20 09:30N 59°41' E 028°25'0 0.0
2018-Feb-20 09:00N 59°41' E 028°25'0 0.0
2018-Feb-20 08:30N 59°41' E 028°25'0 0.0
2018-Feb-20 08:00N 59°41' E 028°25'0 0.0
2018-Feb-20 07:30N 59°41' E 028°25'0 0.0
2018-Feb-20 07:00N 59°41' E 028°25'0 0.0
2018-Feb-20 06:30N 59°41' E 028°25'0 0.0
2018-Feb-20 06:00N 59°41' E 028°25'0 0.0
2018-Feb-20 05:30N 59°41' E 028°25'0 0.0
2018-Feb-20 05:00N 59°41' E 028°25'0 0.0
2018-Feb-20 04:30N 59°41' E 028°25'0 0.0
2018-Feb-20 04:00N 59°41' E 028°25'0 0.0
2018-Feb-20 03:30N 59°41' E 028°25'0 0.0
2018-Feb-20 03:00N 59°41' E 028°25'0 0.0
2018-Feb-20 02:30N 59°41' E 028°25'0 0.0
2018-Feb-20 01:51N 59°41' E 028°25'0 0.0
2018-Feb-20 01:21N 59°41' E 028°25'0 0.0
2018-Feb-20 00:54N 59°41' E 028°25'0 0.0
2018-Feb-20 00:24N 59°41' E 028°25'0 0.0
2018-Feb-19 23:51N 59°41' E 028°25'0 0.0
2018-Feb-19 23:24N 59°41' E 028°25'0 0.0
2018-Feb-19 22:54N 59°41' E 028°25'0 0.0
2018-Feb-19 22:31N 59°41' E 028°25'0 0.0
2018-Feb-19 22:01N 59°41' E 028°25'0 0.0
2018-Feb-19 21:28N 59°41' E 028°25'0 0.0
2018-Feb-19 21:01N 59°41' E 028°25'0 0.0
2018-Feb-19 20:30N 59°41' E 028°25'2 3.5
2018-Feb-19 20:00N 59°42' E 028°24'4 8.4
2018-Feb-19 19:30N 59°46' E 028°24'5 9.5
2018-Feb-19 19:01N 59°51' E 028°26'5 9.3
2018-Feb-19 18:31N 59°55' E 028°32'3 5.5
2018-Feb-19 18:00N 59°56' E 028°37'0 0.1
2018-Feb-19 17:28N 59°56' E 028°37'0 0.0
2018-Feb-19 16:59N 59°56' E 028°37'0 0.0
2018-Feb-19 16:29N 59°56' E 028°37'0 0.0
2018-Feb-19 15:59N 59°56' E 028°37'0 0.0
2018-Feb-19 15:29N 59°56' E 028°37'0 0.0
2018-Feb-19 14:59N 59°56' E 028°37'0 0.0
2018-Feb-19 14:29N 59°56' E 028°37'0 0.0
2018-Feb-19 13:59N 59°56' E 028°37'0 0.0
2018-Feb-19 13:29N 59°56' E 028°37'0 0.0
2018-Feb-19 12:59N 59°56' E 028°37'0 0.0
2018-Feb-19 12:29N 59°56' E 028°37'0 0.0
2018-Feb-19 11:59N 59°56' E 028°37'0 0.0
2018-Feb-19 11:20N 59°56' E 028°37'0 0.0
2018-Feb-19 10:59N 59°56' E 028°37'0 0.0
2018-Feb-19 10:29N 59°56' E 028°37'0 0.0
2018-Feb-19 09:59N 59°56' E 028°37'0 0.0
2018-Feb-19 09:20N 59°56' E 028°37'0 0.0
2018-Feb-19 08:50N 59°56' E 028°37'0 0.0
2018-Feb-19 08:29N 59°56' E 028°37'0 0.0
2018-Feb-19 08:00N 59°56' E 028°37'0 0.0
2018-Feb-19 07:30N 59°56' E 028°37'0 0.0
2018-Feb-19 07:00N 59°56' E 028°37'0 0.0
2018-Feb-19 06:30N 59°56' E 028°37'0 0.0
2018-Feb-19 06:00N 59°56' E 028°37'0 0.0
2018-Feb-19 05:30N 59°56' E 028°37'0 0.0
2018-Feb-19 05:00N 59°56' E 028°37'0 0.0
2018-Feb-19 04:29N 59°56' E 028°37'0 0.0
2018-Feb-19 04:00N 59°56' E 028°37'0 0.0
2018-Feb-19 03:30N 59°56' E 028°37'0 0.0
2018-Feb-19 03:00N 59°56' E 028°37'0 0.0
2018-Feb-19 02:30N 59°56' E 028°37'0 0.1
2018-Feb-19 02:00N 59°56' E 028°37'0 0.1
2018-Feb-19 01:30N 59°56' E 028°37'0 0.1
2018-Feb-19 01:00N 59°56' E 028°37'1 1.3
2018-Feb-19 00:30N 59°56' E 028°36'5 9.7
2018-Feb-19 00:00N 60°01' E 028°35'510.9
2018-Feb-18 23:30N 60°03' E 028°25'510.9
2018-Feb-18 23:00N 60°07' E 028°16'510.0
2018-Feb-18 22:30N 60°07' E 028°06'0 0.1
2018-Feb-18 22:00N 60°07' E 028°06'0 0.0
2018-Feb-18 21:30N 60°07' E 028°06'0 0.0
2018-Feb-18 21:00N 60°07' E 028°06'0 0.0
2018-Feb-18 20:30N 60°07' E 028°06'1 1.9
2018-Feb-18 20:00N 60°08' E 028°05'0 0.2
2018-Feb-18 19:30N 60°08' E 028°05'3 6.1
2018-Feb-18 19:00N 60°09' E 027°59'510.5
2018-Feb-18 18:30N 60°10' E 027°49'5 9.4
2018-Feb-18 18:01N 60°08' E 027°40'4 8.9
2018-Feb-18 17:30N 60°06' E 027°32'5 9.9
2018-Feb-18 17:00N 60°04' E 027°23'5 9.4
2018-Feb-18 16:30N 60°01' E 027°15'611.1
2018-Feb-18 16:00N 59°58' E 027°06'510.2
2018-Feb-18 15:30N 59°58' E 026°56'611.8
2018-Feb-18 15:00N 59°59' E 026°44'611.4
2018-Feb-18 14:30N 59°58' E 026°33'611.6
2018-Feb-18 14:00N 59°57' E 026°22'1811.6
2018-Feb-18 12:27N 59°52' E 025°47'511.7
2018-Feb-18 11:59N 59°50' E 025°36'511.5
2018-Feb-18 11:30N 59°49' E 025°26'711.7
2018-Feb-18 10:54N 59°48' E 025°12'511.6
2018-Feb-18 10:30N 59°47' E 025°03'611.8
2018-Feb-18 10:00N 59°46' E 024°51'611.3
2018-Feb-18 09:30N 59°45' E 024°40'611.5
2018-Feb-18 09:00N 59°43' E 024°29'611.6
2018-Feb-18 08:30N 59°42' E 024°18'611.5
2018-Feb-18 08:00N 59°40' E 024°07'611.6
2018-Feb-18 07:30N 59°38' E 023°56'611.8
2018-Feb-18 07:00N 59°37' E 023°45'611.9
2018-Feb-18 06:30N 59°35' E 023°34'612.1
2018-Feb-18 06:00N 59°33' E 023°23'611.6
2018-Feb-18 05:30N 59°31' E 023°12'611.9
2018-Feb-18 05:00N 59°29' E 023°01'28311.2
2018-Feb-17 03:38N 56°06' E 016°51'211.4
2018-Feb-17 03:30N 56°05' E 016°49'611.2
2018-Feb-17 02:59N 56°02' E 016°41'611.4
2018-Feb-17 02:30N 55°59' E 016°32'611.6
2018-Feb-17 02:00N 55°56' E 016°23'611.5
2018-Feb-17 01:30N 55°54' E 016°14'611.4
2018-Feb-17 01:00N 55°51' E 016°05'611.4
2018-Feb-17 00:30N 55°48' E 015°56'611.4
2018-Feb-17 00:00N 55°45' E 015°48'611.6
2018-Feb-16 23:30N 55°42' E 015°39'611.8
2018-Feb-16 23:00N 55°39' E 015°30'611.7
2018-Feb-16 22:30N 55°36' E 015°21'611.6
2018-Feb-16 22:00N 55°33' E 015°12'611.6
2018-Feb-16 21:30N 55°31' E 015°03'611.5
2018-Feb-16 21:00N 55°28' E 014°54'611.4
2018-Feb-16 20:29N 55°25' E 014°44'611.3
2018-Feb-16 19:59N 55°22' E 014°36'511.4
2018-Feb-16 19:30N 55°18' E 014°30'510.8
2018-Feb-16 19:00N 55°14' E 014°24'510.3
2018-Feb-16 18:29N 55°11' E 014°16'811.5
2018-Feb-16 17:50N 55°11' E 014°03'3111.7
2018-Feb-16 15:09N 55°13' E 013°08'211.4
2018-Feb-16 14:59N 55°13' E 013°04'611.8
2018-Feb-16 14:29N 55°14' E 012°54'611.9
2018-Feb-16 14:00N 55°16' E 012°45'510.6
2018-Feb-16 13:30N 55°20' E 012°39'611.2
2018-Feb-16 13:00N 55°25' E 012°38'611.8
2018-Feb-16 12:30N 55°30' E 012°32'510.5
2018-Feb-16 12:00N 55°35' E 012°29'1 2.1
2018-Feb-16 11:30N 55°36' E 012°29'0 0.0
2018-Feb-16 11:00N 55°36' E 012°29'0 0.0
2018-Feb-16 10:29N 55°36' E 012°29'0 0.0
2018-Feb-16 09:59N 55°36' E 012°29'0 0.0
2018-Feb-16 09:29N 55°36' E 012°29'0 0.0
2018-Feb-16 08:59N 55°36' E 012°29'0 0.0
2018-Feb-16 08:28N 55°36' E 012°29'0 0.0
2018-Feb-16 07:59N 55°36' E 012°29'0 0.0
2018-Feb-16 07:28N 55°36' E 012°29'0 0.0
2018-Feb-16 06:58N 55°36' E 012°29'0 0.0
2018-Feb-16 06:29N 55°36' E 012°29'0 0.0
2018-Feb-16 05:59N 55°36' E 012°29'0 0.0
2018-Feb-16 05:28N 55°36' E 012°29'0 0.0
2018-Feb-16 04:59N 55°36' E 012°29'0 0.0
2018-Feb-16 04:29N 55°36' E 012°29'0 0.0
2018-Feb-16 03:59N 55°36' E 012°29'0 0.0
2018-Feb-16 03:29N 55°36' E 012°29'0 0.0
2018-Feb-16 02:58N 55°36' E 012°29'0 0.0
2018-Feb-16 02:28N 55°36' E 012°29'0 0.0
2018-Feb-16 01:59N 55°36' E 012°29'0 0.0
2018-Feb-16 01:29N 55°36' E 012°29'0 0.0
2018-Feb-16 00:59N 55°36' E 012°29'0 0.0
2018-Feb-16 00:29N 55°36' E 012°29'0 0.0
2018-Feb-15 23:58N 55°36' E 012°29'0 0.0
2018-Feb-15 23:28N 55°36' E 012°29'0 0.0
2018-Feb-15 22:58N 55°36' E 012°29'0 0.0
2018-Feb-15 22:29N 55°36' E 012°29'0 0.0
2018-Feb-15 21:59N 55°36' E 012°29'0 0.0
2018-Feb-15 21:29N 55°36' E 012°29'0 0.0
2018-Feb-15 20:59N 55°36' E 012°29'0 0.0
2018-Feb-15 20:29N 55°36' E 012°29'0 0.0
2018-Feb-15 19:59N 55°36' E 012°29'0 0.0
2018-Feb-15 19:29N 55°36' E 012°29'0 0.0
2018-Feb-15 18:59N 55°36' E 012°29'0 0.0
2018-Feb-15 18:29N 55°36' E 012°29'0 0.0
2018-Feb-15 17:59N 55°36' E 012°29'0 0.0
2018-Feb-15 17:29N 55°36' E 012°29'0 0.0
2018-Feb-15 16:58N 55°36' E 012°29'0 0.0
2018-Feb-15 16:28N 55°36' E 012°29'0 0.0
2018-Feb-15 15:58N 55°36' E 012°29'0 0.0
2018-Feb-15 15:29N 55°36' E 012°29'0 0.0
2018-Feb-15 14:59N 55°36' E 012°29'0 0.0
2018-Feb-15 14:29N 55°36' E 012°29'0 0.0
2018-Feb-15 13:59N 55°36' E 012°29'0 0.0
2018-Feb-15 13:28N 55°36' E 012°29'0 0.0
2018-Feb-15 12:58N 55°36' E 012°29'0 0.0
2018-Feb-15 12:29N 55°36' E 012°29'0 0.0
2018-Feb-15 11:58N 55°36' E 012°29'0 0.0
2018-Feb-15 11:29N 55°36' E 012°29'0 0.0
2018-Feb-15 10:59N 55°36' E 012°29'0 0.0
2018-Feb-15 10:29N 55°36' E 012°29'0 0.0
2018-Feb-15 09:58N 55°36' E 012°29'0 0.0
2018-Feb-15 09:29N 55°36' E 012°29'0 0.0
2018-Feb-15 08:58N 55°36' E 012°29'0 0.0
2018-Feb-15 08:28N 55°36' E 012°29'0 0.0
2018-Feb-15 07:59N 55°36' E 012°29'0 0.0
2018-Feb-15 07:28N 55°36' E 012°29'0 0.0
2018-Feb-15 06:59N 55°36' E 012°29'0 0.0
2018-Feb-15 06:29N 55°36' E 012°29'0 0.0
2018-Feb-15 05:58N 55°36' E 012°29'0 0.0
2018-Feb-15 05:29N 55°36' E 012°29'0 0.0
2018-Feb-15 04:58N 55°36' E 012°29'0 0.0
2018-Feb-15 04:29N 55°36' E 012°29'0 0.0
2018-Feb-15 03:59N 55°36' E 012°29'0 0.0
2018-Feb-15 03:29N 55°36' E 012°29'0 0.0
2018-Feb-15 02:59N 55°36' E 012°29'0 0.0
2018-Feb-15 02:29N 55°36' E 012°29'0 0.0
2018-Feb-15 01:59N 55°36' E 012°29'0 0.0
2018-Feb-15 01:29N 55°36' E 012°29'0 0.0
2018-Feb-15 00:58N 55°36' E 012°29'0 0.0
2018-Feb-15 00:28N 55°36' E 012°29'0 0.0
2018-Feb-14 23:59N 55°36' E 012°29'0 0.0
2018-Feb-14 23:28N 55°36' E 012°29'0 0.0
2018-Feb-14 22:58N 55°36' E 012°29'0 0.0
2018-Feb-14 22:28N 55°36' E 012°29'0 0.0
2018-Feb-14 21:59N 55°36' E 012°29'0 0.1
2018-Feb-14 21:30N 55°36' E 012°29'0 0.2
2018-Feb-14 21:00N 55°36' E 012°29'4 8.1
2018-Feb-14 20:30N 55°32' E 012°30'4 8.7
2018-Feb-14 20:00N 55°30' E 012°37'2 4.1
2018-Feb-14 19:30N 55°28' E 012°35'0 0.1
2018-Feb-14 18:53N 55°28' E 012°35'0 0.0
2018-Feb-14 18:29N 55°28' E 012°35'0 0.0
2018-Feb-14 17:59N 55°28' E 012°35'0 0.0
2018-Feb-14 17:29N 55°28' E 012°35'0 0.0
2018-Feb-14 16:59N 55°28' E 012°35'0 0.0
2018-Feb-14 16:29N 55°28' E 012°35'0 0.0
2018-Feb-14 15:56N 55°28' E 012°35'0 0.0
2018-Feb-14 15:29N 55°28' E 012°35'0 0.0
2018-Feb-14 14:59N 55°28' E 012°35'0 0.0
2018-Feb-14 14:29N 55°28' E 012°35'0 0.0
2018-Feb-14 13:59N 55°28' E 012°35'0 0.0
2018-Feb-14 13:29N 55°28' E 012°35'0 0.0
2018-Feb-14 12:53N 55°28' E 012°35'0 0.0
2018-Feb-14 12:26N 55°28' E 012°35'0 0.0
2018-Feb-14 11:56N 55°28' E 012°35'0 0.1
2018-Feb-14 11:26N 55°28' E 012°35'0 0.0
2018-Feb-14 10:59N 55°28' E 012°35'0 0.1
2018-Feb-14 10:26N 55°28' E 012°35'0 0.0
2018-Feb-14 09:59N 55°28' E 012°35'0 0.0
2018-Feb-14 09:29N 55°28' E 012°35'0 0.0
2018-Feb-14 08:50N 55°28' E 012°35'0 0.0
2018-Feb-14 08:20N 55°28' E 012°35'0 0.0
2018-Feb-14 07:56N 55°28' E 012°35'0 0.0
2018-Feb-14 07:29N 55°28' E 012°35'0 0.0
2018-Feb-14 06:59N 55°28' E 012°35'0 0.0
2018-Feb-14 06:26N 55°28' E 012°35'0 0.0
2018-Feb-14 05:56N 55°28' E 012°35'0 0.0
2018-Feb-14 05:29N 55°28' E 012°35'0 0.0
2018-Feb-14 04:59N 55°28' E 012°35'0 0.0
2018-Feb-14 04:29N 55°28' E 012°35'0 0.0
2018-Feb-14 03:59N 55°28' E 012°35'0 0.0
2018-Feb-14 03:29N 55°28' E 012°35'0 0.0
2018-Feb-14 02:59N 55°28' E 012°35'0 0.0
2018-Feb-14 01:56N 55°28' E 012°35'0 0.0
2018-Feb-14 01:29N 55°28' E 012°35'0 0.0
2018-Feb-14 00:56N 55°28' E 012°35'0 0.0
2018-Feb-14 00:29N 55°28' E 012°35'0 0.0
2018-Feb-13 23:59N 55°28' E 012°35'0 0.0
2018-Feb-13 23:26N 55°28' E 012°35'0 0.0
2018-Feb-13 22:56N 55°28' E 012°35'0 0.0
2018-Feb-13 22:29N 55°28' E 012°35'0 0.0
2018-Feb-13 21:59N 55°28' E 012°35'0 0.0
2018-Feb-13 21:29N 55°28' E 012°35'0 0.1
2018-Feb-13 20:44N 55°28' E 012°35'0 0.0
2018-Feb-13 20:26N 55°28' E 012°35'0 0.0
2018-Feb-13 19:59N 55°28' E 012°35'0 0.0
2018-Feb-13 19:29N 55°28' E 012°35'0 0.0
2018-Feb-13 18:59N 55°28' E 012°35'0 0.0
2018-Feb-13 18:29N 55°28' E 012°35'0 0.0
2018-Feb-13 17:56N 55°28' E 012°35'0 0.0
2018-Feb-13 17:29N 55°28' E 012°35'0 0.0
2018-Feb-13 16:59N 55°28' E 012°35'0 0.0
2018-Feb-13 16:26N 55°28' E 012°35'0 0.0
2018-Feb-13 15:59N 55°28' E 012°35'0 0.0
2018-Feb-13 15:26N 55°28' E 012°35'0 0.1
2018-Feb-13 14:59N 55°28' E 012°35'0 0.0
2018-Feb-13 14:29N 55°28' E 012°35'0 0.0
2018-Feb-13 13:59N 55°28' E 012°35'0 0.0
2018-Feb-13 13:29N 55°28' E 012°35'0 0.0
2018-Feb-13 12:56N 55°28' E 012°35'0 0.1
2018-Feb-13 12:29N 55°28' E 012°35'0 0.0
2018-Feb-13 11:56N 55°28' E 012°35'0 0.0
2018-Feb-13 11:29N 55°28' E 012°35'0 0.0
2018-Feb-13 10:59N 55°28' E 012°35'0 0.0
2018-Feb-13 10:26N 55°28' E 012°35'0 0.1
2018-Feb-13 09:59N 55°28' E 012°35'  

Dump ship's entire track history